Time;durP1;ratioP1;P1;durP2;ratioP2;P2;SDS_P1;SDS_P2;PMS_P1;PMS_P2;Temp;Humidity;BMP_temperature;BMP_pressure;BME280_temperature;BME280_humidity;BME280_pressure;Samples;Min_cycle;Max_cycle;Signal;HPM_P1;HPM_P2
2024/02/28 00:01:23;;;;;;;;;;;;;;;-0.57;100.00;101563.44;6194411;23;20314;-77
2024/02/28 00:06:19;;;;;;;;;;;;;;;-0.68;100.00;101555.38;6184880;23;19924;-77
2024/02/28 00:08:44;;;;;;;;;;;;;;;-0.68;100.00;101556.22;6185364;23;19923;-77
2024/02/28 00:11:10;;;;;;;;;;;;;;;-0.64;100.00;101551.56;6182077;23;19920;-77
2024/02/28 00:13:36;;;;;;;;;;;;;;;-0.75;100.00;101572.63;6181706;23;19929;-77
2024/02/28 00:16:02;;;;;;;;;;;;;;;-0.88;100.00;101568.16;6184929;23;19916;-77
2024/02/28 00:18:27;;;;;;;;;;;;;;;-0.83;100.00;101575.78;6184252;23;19966;-77
2024/02/28 00:20:54;;;;;;;;;;;;;;;-0.86;100.00;101566.25;6185658;23;19920;-77
2024/02/28 00:23:19;;;;;;;;;;;;;;;-0.86;100.00;101565.41;6196401;23;19905;-76
2024/02/28 00:25:44;;;;;;;;;;;;;;;-0.85;100.00;101567.94;6204293;23;19927;-77
2024/02/28 00:28:09;;;;;;;;;;;;;;;-1.05;100.00;101564.03;6187590;23;19936;-77
2024/02/28 00:30:35;;;;;;;;;;;;;;;-1.10;100.00;101574.91;6187191;23;19990;-77
2024/02/28 00:33:03;;;;;;;;;;;;;;;-1.14;100.00;101568.13;6184781;23;19912;-76
2024/02/28 00:35:32;;;;;;;;;;;;;;;-1.21;100.00;101561.56;6185273;23;20266;-77
2024/02/28 00:37:57;;;;;;;;;;;;;;;-1.29;100.00;101555.94;6185309;23;20210;-77
2024/02/28 00:40:24;;;;;;;;;;;;;;;-1.31;100.00;101549.91;6183841;23;19912;-77
2024/02/28 00:42:50;;;;;;;;;;;;;;;-1.26;100.00;101555.75;6159759;23;19920;-77
2024/02/28 00:45:15;;;;;;;;;;;;;;;-1.12;100.00;101557.44;6186008;23;19947;-77
2024/02/28 00:47:40;;;;;;;;;;;;;;;-1.08;100.00;101559.81;6185354;23;19920;-77
2024/02/28 00:50:05;;;;;;;;;;;;;;;-1.12;100.00;101554.81;6205070;23;19917;-77
2024/02/28 00:52:32;;;;;;;;;;;;;;;-0.92;100.00;101550.84;6199050;23;19974;-77
2024/02/28 00:54:58;;;;;;;;;;;;;;;-0.77;100.00;101533.91;6187599;23;19912;-76
2024/02/28 00:57:23;;;;;;;;;;;;;;;-0.69;100.00;101529.88;6176789;23;20214;-76
2024/02/28 00:59:52;;;;;;;;;;;;;;;-0.77;100.00;101523.34;6186497;23;19916;-76
2024/02/28 01:02:17;;;;;;;;;;;;;;;-0.72;100.00;101533.59;6186701;23;19931;-76
2024/02/28 01:04:42;;;;;;;;;;;;;;;-0.61;100.00;101530.22;6187948;23;19990;-77
2024/02/28 01:07:10;;;;;;;;;;;;;;;-0.71;100.00;101537.09;6190577;23;19916;-76
2024/02/28 01:09:35;;;;;;;;;;;;;;;-0.79;100.00;101533.16;6191862;23;19935;-76
2024/02/28 01:12:00;;;;;;;;;;;;;;;-0.62;100.00;101537.28;6194086;23;19913;-77
2024/02/28 01:14:26;;;;;;;;;;;;;;;-0.57;100.00;101538.75;6206349;23;19975;-76
2024/02/28 01:16:51;;;;;;;;;;;;;;;-0.63;100.00;101545.31;6205524;23;19916;-77
2024/02/28 01:19:16;;;;;;;;;;;;;;;-0.53;100.00;101554.31;6190315;23;19913;-77
2024/02/28 01:21:41;;;;;;;;;;;;;;;-0.50;100.00;101559.38;6190481;23;19991;-78
2024/02/28 01:24:12;;;;;;;;;;;;;;;-0.79;100.00;101556.97;6186654;23;20007;-78
2024/02/28 01:26:38;;;;;;;;;;;;;;;-0.69;100.00;101556.31;6188223;23;19917;-78
2024/02/28 01:29:03;;;;;;;;;;;;;;;-0.94;100.00;101558.84;6188780;23;20397;-78
2024/02/28 01:31:29;;;;;;;;;;;;;;;-0.93;100.00;101560.53;6185213;23;19916;-78
2024/02/28 01:33:55;;;;;;;;;;;;;;;-1.00;100.00;101553.13;6186353;23;19992;-76
2024/02/28 01:36:23;;;;;;;;;;;;;;;-0.92;100.00;101548.19;6186479;23;20011;-79
2024/02/28 01:38:48;;;;;;;;;;;;;;;-0.82;100.00;101551.88;6185399;23;19947;-77
2024/02/28 01:41:13;;;;;;;;;;;;;;;-0.86;100.00;101545.09;6181926;23;19927;-77
2024/02/28 01:43:39;;;;;;;;;;;;;;;-0.86;100.00;101539.00;6186349;23;19913;-77
2024/02/28 01:46:18;;;;;;;;;;;;;;;-0.82;100.00;101530.72;6183647;23;19991;-77
2024/02/28 01:48:43;;;;;;;;;;;;;;;-0.76;100.00;101524.16;6158301;23;20361;-77
2024/02/28 01:51:08;;;;;;;;;;;;;;;-0.72;100.00;101520.38;6159241;23;19912;-76
2024/02/28 01:53:33;;;;;;;;;;;;;;;-0.63;100.00;101524.19;6185325;23;19919;-76
2024/02/28 01:55:58;;;;;;;;;;;;;;;-0.65;100.00;101526.06;6184560;23;19912;-77
2024/02/28 01:58:24;;;;;;;;;;;;;;;-0.63;100.00;101519.75;6186419;23;19920;-77
2024/02/28 02:00:49;;;;;;;;;;;;;;;-0.64;100.00;101519.84;6158495;23;19912;-77
2024/02/28 02:03:14;;;;;;;;;;;;;;;-0.67;100.00;101520.03;6184391;23;19920;-77
2024/02/28 02:05:41;;;;;;;;;;;;;;;-0.78;100.00;101521.66;6186379;23;19943;-77
2024/02/28 02:08:06;;;;;;;;;;;;;;;-0.80;100.00;101518.25;6184597;23;19912;-77
2024/02/28 02:10:31;;;;;;;;;;;;;;;-0.71;100.00;101515.94;6183041;23;19951;-77
2024/02/28 02:13:03;;;;;;;;;;;;;;;-0.68;100.00;101524.50;6159898;23;19919;-77
2024/02/28 02:15:31;;;;;;;;;;;;;;;-0.70;100.00;101518.47;6185036;23;19920;-78
2024/02/28 02:17:56;;;;;;;;;;;;;;;-0.88;100.00;101523.22;6182110;23;19939;-77
2024/02/28 02:20:21;;;;;;;;;;;;;;;-0.74;100.00;101529.38;6185514;23;19955;-77
2024/02/28 02:22:46;;;;;;;;;;;;;;;-0.78;100.00;101536.66;6155163;23;19975;-77
2024/02/28 02:25:12;;;;;;;;;;;;;;;-0.66;100.00;101529.66;6184108;23;19916;-77
2024/02/28 02:27:37;;;;;;;;;;;;;;;-0.69;100.00;101535.16;6186464;23;19916;-77
2024/02/28 02:30:03;;;;;;;;;;;;;;;-0.58;100.00;101537.94;6186023;23;20325;-77
2024/02/28 02:32:28;;;;;;;;;;;;;;;-0.62;100.00;101547.03;6184329;23;20293;-77
2024/02/28 02:34:53;;;;;;;;;;;;;;;-0.57;100.00;101547.56;6186162;23;19916;-77
2024/02/28 02:37:18;;;;;;;;;;;;;;;-0.56;100.00;101549.25;6185770;23;20325;-76
2024/02/28 02:39:44;;;;;;;;;;;;;;;-0.56;100.00;101548.38;6183989;23;20368;-77
2024/02/28 02:42:09;;;;;;;;;;;;;;;-0.54;100.00;101562.34;6185850;23;20326;-77
2024/02/28 02:44:34;;;;;;;;;;;;;;;-0.55;100.00;101555.38;6185709;23;20406;-76
2024/02/28 02:46:59;;;;;;;;;;;;;;;-0.54;100.00;101560.56;6183880;23;19916;-77
2024/02/28 02:49:25;;;;;;;;;;;;;;;-0.68;100.00;101556.22;6184553;23;19917;-76
2024/02/28 02:51:50;;;;;;;;;;;;;;;-0.66;100.00;101561.41;6185270;23;19917;-77
2024/02/28 02:54:15;;;;;;;;;;;;;;;-0.49;100.00;101555.78;6156928;23;19912;-76
2024/02/28 02:56:41;;;;;;;;;;;;;;;-0.43;100.00;101558.97;6185334;23;19994;-77
2024/02/28 02:59:06;;;;;;;;;;;;;;;-0.47;100.00;101561.00;6185101;23;19912;-77
2024/02/28 03:01:31;;;;;;;;;;;;;;;-0.49;100.00;101561.06;6184671;23;19928;-77
2024/02/28 03:03:56;;;;;;;;;;;;;;;-0.46;100.00;101557.38;6185589;23;19912;-78
2024/02/28 03:06:23;;;;;;;;;;;;;;;-0.37;100.00;101556.72;6185468;23;19913;-78
2024/02/28 03:08:50;;;;;;;;;;;;;;;-0.36;100.00;101552.31;6185744;23;19916;-78
2024/02/28 03:11:15;;;;;;;;;;;;;;;-0.32;100.00;101557.25;6185333;23;19918;-78
2024/02/28 03:13:41;;;;;;;;;;;;;;;-0.32;100.00;101551.97;6185631;23;19990;-78
2024/02/28 03:16:06;;;;;;;;;;;;;;;-0.38;100.00;101551.56;6185010;23;19919;-78
2024/02/28 03:18:31;;;;;;;;;;;;;;;-0.34;100.00;101561.81;6193963;23;19935;-78
2024/02/28 03:20:57;;;;;;;;;;;;;;;-0.42;100.00;101550.06;6207033;23;19912;-77
2024/02/28 03:23:22;;;;;;;;;;;;;;;-0.27;100.00;101551.63;6189204;23;20285;-78
2024/02/28 03:25:47;;;;;;;;;;;;;;;-0.26;100.00;101560.41;6187206;23;19912;-78
2024/02/28 03:28:12;;;;;;;;;;;;;;;-0.26;100.00;101549.81;6185775;23;19915;-78
2024/02/28 03:30:40;;;;;;;;;;;;;;;-0.11;100.00;101547.91;6184596;23;19912;-78
2024/02/28 03:33:06;;;;;;;;;;;;;;;-0.12;100.00;101543.56;6158819;23;19999;-78
2024/02/28 03:35:31;;;;;;;;;;;;;;;-0.07;100.00;101552.84;6185212;23;19940;-78
2024/02/28 03:37:56;;;;;;;;;;;;;;;-0.10;100.00;101557.53;6184787;23;19920;-78
2024/02/28 03:40:21;;;;;;;;;;;;;;;-0.05;100.00;101556.25;6158111;23;19912;-78
2024/02/28 03:42:46;;;;;;;;;;;;;;;0.07;100.00;101564.28;6184561;23;19943;-78
2024/02/28 03:45:12;;;;;;;;;;;;;;;-0.05;100.00;101556.25;6208032;23;19912;-78
2024/02/28 03:47:43;;;;;;;;;;;;;;;-0.19;100.00;101559.03;6195869;23;19912;-78
2024/02/28 03:50:08;;;;;;;;;;;;;;;-0.04;100.00;101557.94;6186940;23;19919;-78
2024/02/28 03:52:33;;;;;;;;;;;;;;;-0.19;100.00;101561.69;6186167;23;19916;-78
2024/02/28 03:54:58;;;;;;;;;;;;;;;-0.04;100.00;101557.09;6185197;23;19913;-78
2024/02/28 03:57:24;;;;;;;;;;;;;;;0.03;100.00;101553.03;6185282;23;19963;-78
2024/02/28 03:59:55;;;;;;;;;;;;;;;0.06;100.00;101555.47;6185170;23;19934;-78
2024/02/28 04:02:20;;;;;;;;;;;;;;;0.12;100.00;101551.53;6185303;23;19916;-78
2024/02/28 04:04:45;;;;;;;;;;;;;;;0.09;100.00;101557.91;6185652;23;19981;-78
2024/02/28 04:07:10;;;;;;;;;;;;;;;0.13;100.00;101563.81;6186743;23;19942;-78
2024/02/28 04:09:36;;;;;;;;;;;;;;;0.17;100.00;101557.34;6201151;23;19919;-78
2024/02/28 04:12:01;;;;;;;;;;;;;;;0.07;100.00;101551.88;6198838;23;19992;-78
2024/02/28 04:14:26;;;;;;;;;;;;;;;0.17;100.00;101565.28;6187254;23;19912;-78
2024/02/28 04:16:51;;;;;;;;;;;;;;;0.20;100.00;101554.47;6186941;23;19916;-78
2024/02/28 04:19:17;;;;;;;;;;;;;;;0.25;100.00;101562.06;6187051;23;20015;-78
2024/02/28 04:21:42;;;;;;;;;;;;;;;0.12;100.00;101560.34;6187190;23;19916;-78
2024/02/28 04:24:07;;;;;;;;;;;;;;;0.25;100.00;101562.06;6186171;23;20009;-78
2024/02/28 04:26:32;;;;;;;;;;;;;;;0.29;100.00;101569.69;6188748;23;19920;-78
2024/02/28 04:28:58;;;;;;;;;;;;;;;0.31;100.00;101561.66;6191036;23;19923;-78
2024/02/28 04:31:24;;;;;;;;;;;;;;;0.26;100.00;101563.78;6192216;23;19960;-77
2024/02/28 04:33:49;;;;;;;;;;;;;;;0.29;100.00;101564.38;6202932;23;19900;-78
2024/02/28 04:36:15;;;;;;;;;;;;;;;0.27;100.00;101560.16;6206953;23;19905;-77
2024/02/28 04:38:41;;;;;;;;;;;;;;;0.25;100.00;101564.72;6190113;23;19934;-77
2024/02/28 04:41:06;;;;;;;;;;;;;;;0.23;100.00;101567.50;6188716;23;20345;-77
2024/02/28 04:43:31;;;;;;;;;;;;;;;0.10;100.00;101564.88;6186745;23;20348;-77
2024/02/28 04:45:57;;;;;;;;;;;;;;;0.20;100.00;101569.50;6186110;23;20258;-77
2024/02/28 04:48:23;;;;;;;;;;;;;;;0.19;100.00;101575.75;6186702;23;19939;-77
2024/02/28 04:50:49;;;;;;;;;;;;;;;0.19;100.00;101573.97;6158572;23;20278;-77
2024/02/28 04:53:14;;;;;;;;;;;;;;;0.16;100.00;101578.66;6184013;23;19921;-77
2024/02/28 04:55:42;;;;;;;;;;;;;;;0.08;100.00;101587.97;6184569;23;20210;-77
2024/02/28 04:58:07;;;;;;;;;;;;;;;0.07;100.00;101588.94;6184682;23;19963;-77
2024/02/28 05:00:32;;;;;;;;;;;;;;;-0.06;100.00;101581.00;6182858;23;19920;-77
2024/02/28 05:02:58;;;;;;;;;;;;;;;-0.04;100.00;101596.81;6184050;23;19963;-77
2024/02/28 05:05:23;;;;;;;;;;;;;;;-0.01;100.00;101588.66;6185199;23;19979;-82
2024/02/28 05:07:49;;;;;;;;;;;;;;;0.04;100.00;101589.16;6183163;23;19919;-77
2024/02/28 05:10:14;;;;;;;;;;;;;;;0.08;100.00;101598.56;6183789;23;19963;-77
2024/02/28 05:12:39;;;;;;;;;;;;;;;0.11;100.00;101595.72;6184420;23;19912;-78
2024/02/28 05:15:06;;;;;;;;;;;;;;;0.12;100.00;101604.47;6183166;23;19959;-86
2024/02/28 05:17:31;;;;;;;;;;;;;;;0.11;100.00;101605.44;6184244;23;19912;-78
2024/02/28 05:19:57;;;;;;;;;;;;;;;0.08;100.00;101608.31;6184014;23;19947;-75
2024/02/28 05:22:22;;;;;;;;;;;;;;;0.10;100.00;101599.31;6183462;23;19923;-75
2024/02/28 05:24:47;;;;;;;;;;;;;;;0.04;100.00;101601.56;6182847;23;19920;-75
2024/02/28 05:27:13;;;;;;;;;;;;;;;0.03;100.00;101602.50;6182907;23;19912;-76
2024/02/28 05:29:38;;;;;;;;;;;;;;;-0.01;100.00;101604.53;6183199;23;19951;-76
2024/02/28 05:32:03;;;;;;;;;;;;;;;0.05;100.00;101604.06;6184176;23;19928;-76
2024/02/28 05:34:29;;;;;;;;;;;;;;;0.03;100.00;101598.03;6184329;23;19912;-76
2024/02/28 05:36:54;;;;;;;;;;;;;;;0.00;100.00;101593.00;6183655;23;19923;-76
2024/02/28 05:39:20;;;;;;;;;;;;;;;-0.06;100.00;101591.59;6183298;23;19916;-76
2024/02/28 05:41:45;;;;;;;;;;;;;;;-0.09;100.00;101589.16;6183955;23;19919;-76
2024/02/28 05:44:10;;;;;;;;;;;;;;;-0.03;100.00;101590.56;6184017;23;19991;-76
2024/02/28 05:46:36;;;;;;;;;;;;;;;-0.06;100.00;101606.66;6184015;23;19983;-77
2024/02/28 05:49:02;;;;;;;;;;;;;;;-0.07;100.00;101610.25;6184106;23;19971;-76
2024/02/28 05:51:27;;;;;;;;;;;;;;;-0.09;100.00;101612.16;6183559;23;19923;-76
2024/02/28 05:53:53;;;;;;;;;;;;;;;-0.09;100.00;101606.88;6186007;23;19995;-76
2024/02/28 05:56:19;;;;;;;;;;;;;;;-0.11;100.00;101603.47;6185364;23;19920;-76
2024/02/28 05:58:45;;;;;;;;;;;;;;;-0.12;100.00;101602.66;6184917;23;19943;-76
2024/02/28 06:01:10;;;;;;;;;;;;;;;-0.12;100.00;101607.06;6185464;23;19931;-74
2024/02/28 06:03:38;;;;;;;;;;;;;;;-0.06;100.00;101609.28;6185398;23;20384;-74
2024/02/28 06:06:06;;;;;;;;;;;;;;;-0.06;100.00;101607.47;6159666;23;19912;-77
2024/02/28 06:08:36;;;;;;;;;;;;;;;-0.10;100.00;101613.09;6185147;23;19975;-75
2024/02/28 06:11:02;;;;;;;;;;;;;;;-0.06;100.00;101619.88;6158983;23;19939;-75
2024/02/28 06:13:28;;;;;;;;;;;;;;;-0.06;100.00;101627.81;6185569;23;20328;-76
2024/02/28 06:15:53;;;;;;;;;;;;;;;-0.05;100.00;101634.81;6185184;23;19924;-76
2024/02/28 06:18:18;;;;;;;;;;;;;;;-0.11;100.00;101635.22;6184722;23;19916;-76
2024/02/28 06:20:43;;;;;;;;;;;;;;;-0.17;100.00;101620.63;6184922;23;19916;-76
2024/02/28 06:23:09;;;;;;;;;;;;;;;-0.20;100.00;101627.00;6183741;23;19952;-76
2024/02/28 06:25:34;;;;;;;;;;;;;;;-0.16;100.00;101632.91;6185737;23;19923;-75
2024/02/28 06:28:01;;;;;;;;;;;;;;;-0.17;100.00;101644.47;6186137;23;19908;-76
2024/02/28 06:30:27;;;;;;;;;;;;;;;-0.19;100.00;101638.41;6184284;23;19944;-75
2024/02/28 06:32:52;;;;;;;;;;;;;;;-0.19;100.00;101644.56;6186507;23;19908;-75
2024/02/28 06:35:17;;;;;;;;;;;;;;;-0.21;100.00;101658.84;6186581;23;19916;-75
2024/02/28 06:37:48;;;;;;;;;;;;;;;-0.19;100.00;101665.75;6187892;23;19928;-75
2024/02/28 06:40:13;;;;;;;;;;;;;;;-0.21;100.00;101669.44;6199773;23;19923;-75
2024/02/28 06:42:40;;;;;;;;;;;;;;;-0.20;100.00;101664.03;6203329;23;19944;-75
2024/02/28 06:45:05;;;;;;;;;;;;;;;-0.19;100.00;101665.75;6189172;23;20294;-75
2024/02/28 06:47:32;;;;;;;;;;;;;;;-0.27;100.00;101668.06;6189909;23;19975;-76
2024/02/28 06:49:57;;;;;;;;;;;;;;;-0.16;100.00;101678.75;6186288;23;19923;-75
2024/02/28 06:52:22;;;;;;;;;;;;;;;-0.18;100.00;101674.50;6184501;23;19913;-75
2024/02/28 06:54:48;;;;;;;;;;;;;;;-0.23;100.00;101677.47;6185659;23;20003;-75
2024/02/28 06:57:13;;;;;;;;;;;;;;;-0.17;100.00;101669.09;6186109;23;20010;-76
2024/02/28 06:59:38;;;;;;;;;;;;;;;-0.15;100.00;101671.66;6184708;23;19916;-76
2024/02/28 07:02:04;;;;;;;;;;;;;;;-0.18;100.00;101667.41;6186321;23;20317;-76
2024/02/28 07:04:31;;;;;;;;;;;;;;;-0.10;100.00;101671.34;6187714;23;19943;-76
2024/02/28 07:06:56;;;;;;;;;;;;;;;-0.17;100.00;101676.22;6206946;23;19900;-76
2024/02/28 07:09:21;;;;;;;;;;;;;;;-0.09;100.00;101673.03;6198151;23;19913;-77
2024/02/28 07:11:47;;;;;;;;;;;;;;;-0.05;100.00;101671.88;6189904;23;19963;-77
2024/02/28 07:14:12;;;;;;;;;;;;;;;-0.08;100.00;101687.97;6186259;23;19982;-77
2024/02/28 07:16:37;;;;;;;;;;;;;;;0.00;100.00;101685.63;6180805;23;20011;-77
2024/02/28 07:19:03;;;;;;;;;;;;;;;0.08;100.00;101678.00;6186983;23;20330;-77
2024/02/28 07:21:29;;;;;;;;;;;;;;;0.07;100.00;101670.16;6180770;23;20337;-77
2024/02/28 07:23:56;;;;;;;;;;;;;;;0.07;100.00;101681.59;6186923;23;19994;-77
2024/02/28 07:26:21;;;;;;;;;;;;;;;0.09;100.00;101678.84;6187233;23;19999;-77
2024/02/28 07:28:49;;;;;;;;;;;;;;;0.17;100.00;101683.59;6186356;23;19996;-77
2024/02/28 07:31:17;;;;;;;;;;;;;;;0.25;100.00;101689.19;6198116;23;20217;-78
2024/02/28 07:33:42;;;;;;;;;;;;;;;0.27;100.00;101685.47;6205673;23;20004;-77
2024/02/28 07:36:08;;;;;;;;;;;;;;;0.34;100.00;101688.56;6187273;23;20311;-77
2024/02/28 07:38:33;;;;;;;;;;;;;;;0.34;100.00;101693.84;6188889;23;20279;-77
2024/02/28 07:40:58;;;;;;;;;;;;;;;0.30;100.00;101692.38;6187879;23;19925;-77
2024/02/28 07:43:26;;;;;;;;;;;;;;;0.36;100.00;101702.50;6188709;23;19912;-76
2024/02/28 07:45:52;;;;;;;;;;;;;;;0.33;100.00;101710.69;6189031;23;19927;-77
2024/02/28 07:48:17;;;;;;;;;;;;;;;0.35;100.00;101724.69;6190514;23;19912;-77
2024/02/28 07:50:44;;;;;;;;;;;;;;;0.33;100.00;101720.44;6190778;23;19912;-77
2024/02/28 07:53:09;;;;;;;;;;;;;;;0.35;100.00;101716.72;6195348;23;20586;-77
2024/02/28 07:55:34;;;;;;;;;;;;;;;0.31;100.00;101715.25;6197931;23;19966;-77
2024/02/28 07:57:59;;;;;;;;;;;;;;;0.29;100.00;101719.81;6207412;23;19916;-77
2024/02/28 08:00:25;;;;;;;;;;;;;;;0.31;100.00;101715.25;6198631;23;19936;-79
2024/02/28 08:02:50;;;;;;;;;;;;;;;0.28;100.00;101720.75;6193181;23;19978;-76
2024/02/28 08:05:15;;;;;;;;;;;;;;;0.34;100.00;101717.69;6183154;23;19931;-75
2024/02/28 08:07:41;;;;;;;;;;;;;;;0.33;100.00;101713.34;6186666;23;20294;-75
2024/02/28 08:10:07;;;;;;;;;;;;;;;0.35;100.00;101729.13;6187122;23;19915;-75
2024/02/28 08:12:32;;;;;;;;;;;;;;;0.41;100.00;101732.19;6186589;23;20325;-75
2024/02/28 08:14:57;;;;;;;;;;;;;;;0.53;100.00;101721.69;6184037;23;19992;-75
2024/02/28 08:17:22;;;;;;;;;;;;;;;0.60;100.00;101726.44;6184055;23;19920;-76
2024/02/28 08:19:47;;;;;;;;;;;;;;;0.54;100.00;101723.34;6184626;23;20046;-75
2024/02/28 08:22:13;;;;;;;;;;;;;;;0.64;100.00;101732.34;6184373;23;19916;-75
2024/02/28 08:24:38;;;;;;;;;;;;;;;0.71;100.00;101727.44;6184154;23;19923;-75
2024/02/28 08:27:04;;;;;;;;;;;;;;;0.65;100.00;101725.22;6184337;23;19917;-74
2024/02/28 08:29:29;;;;;;;;;;;;;;;0.72;100.00;101735.28;6184384;23;19943;-75
2024/02/28 08:31:54;;;;;;;;;;;;;;;0.74;100.00;101735.19;6184378;23;19995;-75
2024/02/28 08:34:19;;;;;;;;;;;;;;;0.82;100.00;101745.22;6184746;23;19916;-76
2024/02/28 08:36:47;;;;;;;;;;;;;;;0.86;100.00;101738.75;6182833;23;19927;-77
2024/02/28 08:39:12;;;;;;;;;;;;;;;0.85;100.00;101750.31;6185294;23;19954;-76
2024/02/28 08:41:41;;;;;;;;;;;;;;;0.95;100.00;101753.97;6185268;23;19940;-78
2024/02/28 08:44:06;;;;;;;;;;;;;;;1.03;100.00;101753.41;6184263;23;20329;-77
2024/02/28 08:46:31;;;;;;;;;;;;;;;1.22;100.00;101768.84;6184683;23;19916;-77
2024/02/28 08:48:59;;;;;;;;;;;;;;;1.39;100.00;101769.41;6185305;23;19912;-77
2024/02/28 08:51:25;;;;;;;;;;;;;;;1.57;100.00;101767.16;6184116;23;19982;-77
2024/02/28 08:53:52;;;;;;;;;;;;;;;1.58;100.00;101763.56;6184933;23;20333;-75
2024/02/28 08:56:17;;;;;;;;;;;;;;;1.55;100.00;101769.94;6184992;23;19912;-76
2024/02/28 08:58:44;;;;;;;;;;;;;;;1.63;100.00;101774.69;6183871;23;19947;-77
2024/02/28 09:01:10;;;;;;;;;;;;;;;1.76;100.00;101782.56;6184626;23;20275;-77
2024/02/28 09:03:36;;;;;;;;;;;;;;;1.85;100.00;101781.88;6158385;23;19912;-77
2024/02/28 09:06:01;;;;;;;;;;;;;;;2.00;100.00;101773.69;6183568;23;19962;-76
2024/02/28 09:08:26;;;;;;;;;;;;;;;2.14;100.00;101775.28;6158013;23;19987;-77
2024/02/28 09:10:54;;;;;;;;;;;;;;;2.32;100.00;101779.16;6185886;23;19987;-76
2024/02/28 09:13:19;;;;;;;;;;;;;;;2.36;100.00;101779.78;6183853;23;20007;-77
2024/02/28 09:15:47;;;;;;;;;;;;;;;2.46;100.00;101783.41;6184358;23;19927;-77
2024/02/28 09:18:12;;;;;;;;;;;;;;;2.61;100.00;101786.66;6185342;23;19989;-76
2024/02/28 09:20:37;;;;;;;;;;;;;;;2.77;100.00;101778.31;6183627;23;19916;-76
2024/02/28 09:23:03;;;;;;;;;;;;;;;3.04;100.00;101785.03;6184570;23;19982;-76
2024/02/28 09:25:28;;;;;;;;;;;;;;;3.24;100.00;101775.44;6185663;23;19966;-76
2024/02/28 09:27:54;;;;;;;;;;;;;;;3.58;100.00;101777.97;6186405;23;19931;-76
2024/02/28 09:30:20;;;;;;;;;;;;;;;3.87;100.00;101781.81;6186140;23;19921;-76
2024/02/28 09:32:47;;;;;;;;;;;;;;;4.17;100.00;101783.69;6184254;23;19931;-78
2024/02/28 09:35:12;;;;;;;;;;;;;;;4.41;100.00;101782.53;6185040;23;19939;-78
2024/02/28 09:37:37;;;;;;;;;;;;;;;4.80;100.00;101782.69;6186231;23;19916;-76
2024/02/28 09:40:04;;;;;;;;;;;;;;;4.69;99.70;101772.13;6186711;23;19920;-76
2024/02/28 09:42:30;;;;;;;;;;;;;;;4.42;100.00;101768.22;6185941;23;19983;-76
2024/02/28 09:44:55;;;;;;;;;;;;;;;4.39;100.00;101766.69;6186742;23;19951;-76
2024/02/28 09:47:20;;;;;;;;;;;;;;;4.42;100.00;101776.22;6159893;23;19920;-76
2024/02/28 09:49:45;;;;;;;;;;;;;;;4.43;100.00;101771.72;6159289;23;19916;-76
2024/02/28 09:52:11;;;;;;;;;;;;;;;4.55;100.00;101773.34;6185723;23;19916;-76
2024/02/28 09:54:39;;;;;;;;;;;;;;;4.65;100.00;101776.88;6185597;23;19935;-78
2024/02/28 09:57:06;;;;;;;;;;;;;;;4.65;100.00;101776.06;6159658;23;20011;-77
2024/02/28 09:59:31;;;;;;;;;;;;;;;5.10;99.69;101775.59;6160141;23;19913;-77
2024/02/28 10:01:57;;;;;;;;;;;;;;;5.43;96.73;101773.50;6161366;23;19958;-77
2024/02/28 10:04:23;;;;;;;;;;;;;;;5.23;96.33;101770.00;6193749;23;19953;-75
2024/02/28 10:06:49;;;;;;;;;;;;;;;5.31;97.98;101783.47;6203962;23;19912;-76
2024/02/28 10:09:24;;;;;;;;;;;;;;;5.42;97.88;101765.66;6194174;23;19972;-77
2024/02/28 10:11:49;;;;;;;;;;;;;;;5.57;96.06;101774.94;6192460;23;19919;-76
2024/02/28 10:14:20;;;;;;;;;;;;;;;5.86;93.81;101773.22;6187045;23;20278;-76
2024/02/28 10:16:45;;;;;;;;;;;;;;;6.00;95.01;101777.31;6186048;23;19916;-77
2024/02/28 10:19:11;;;;;;;;;;;;;;;6.30;91.74;101784.25;6185507;23;20240;-76
2024/02/28 10:21:36;;;;;;;;;;;;;;;6.27;92.52;101794.41;6159194;23;19923;-75
2024/02/28 10:24:02;;;;;;;;;;;;;;;6.04;91.61;101794.72;6186072;23;19912;-76
2024/02/28 10:26:29;;;;;;;;;;;;;;;5.59;94.20;101793.47;6186046;23;19919;-76
2024/02/28 10:29:12;;;;;;;;;;;;;;;5.29;96.69;101795.28;6183576;23;19975;-76
2024/02/28 10:31:41;;;;;;;;;;;;;;;5.52;97.38;101793.19;6196644;23;19924;-75
2024/02/28 10:34:21;;;;;;;;;;;;;;;5.39;98.53;101795.31;6203562;23;19963;-76
2024/02/28 10:36:46;;;;;;;;;;;;;;;5.77;96.52;101793.63;6191006;23;19935;-77
2024/02/28 10:39:11;;;;;;;;;;;;;;;5.35;98.75;101799.22;6189031;23;19919;-76
2024/02/28 10:41:45;;;;;;;;;;;;;;;5.71;97.22;101800.38;6183328;23;20375;-76
2024/02/28 10:44:30;;;;;;;;;;;;;;;5.73;96.51;101795.75;6159319;23;19916;-76
2024/02/28 10:47:02;;;;;;;;;;;;;;;5.23;99.39;101796.69;6188036;23;19916;-75
2024/02/28 10:49:30;;;;;;;;;;;;;;;5.73;99.28;101797.56;6186084;23;19912;-74
2024/02/28 10:52:01;;;;;;;;;;;;;;;5.95;99.05;101800.91;6186372;23;19916;-77
2024/02/28 10:54:30;;;;;;;;;;;;;;;6.20;95.68;101796.81;6161829;23;19919;-76
2024/02/28 10:56:59;;;;;;;;;;;;;;;6.11;95.97;101803.88;6167021;23;20018;-76
2024/02/28 10:59:35;;;;;;;;;;;;;;;6.03;97.22;101801.91;6178298;23;19912;-76
2024/02/28 11:02:06;;;;;;;;;;;;;;;6.14;97.16;101794.72;6194700;23;19915;-75
2024/02/28 11:04:31;;;;;;;;;;;;;;;5.88;97.44;101796.13;6163430;23;19912;-76
2024/02/28 11:07:22;;;;;;;;;;;;;;;5.75;99.06;101791.06;6162907;23;19990;-76
2024/02/28 11:09:47;;;;;;;;;;;;;;;5.52;100.00;101795.88;6189640;23;19923;-77
2024/02/28 11:12:28;;;;;;;;;;;;;;;5.55;100.00;101784.06;6187032;23;19916;-74
2024/02/28 11:15:01;;;;;;;;;;;;;;;5.47;100.00;101793.63;6188527;23;20062;-76
2024/02/28 11:17:28;;;;;;;;;;;;;;;5.58;100.00;101789.97;6190117;23;19920;-76
2024/02/28 11:19:53;;;;;;;;;;;;;;;5.42;100.00;101795.03;6189720;23;19956;-76
2024/02/28 11:22:28;;;;;;;;;;;;;;;5.49;100.00;101782.78;6191142;23;19919;-74
2024/02/28 11:24:53;;;;;;;;;;;;;;;5.22;100.00;101784.31;6205399;23;19912;-75
2024/02/28 11:27:23;;;;;;;;;;;;;;;5.59;100.00;101774.78;6193382;23;20314;-77
2024/02/28 11:29:57;;;;;;;;;;;;;;;5.73;100.00;101778.84;6187713;23;19929;-76
2024/02/28 11:32:34;;;;;;;;;;;;;;;5.94;100.00;101778.69;6187602;23;19995;-76
2024/02/28 11:35:14;;;;;;;;;;;;;;;6.16;100.00;101766.88;6187468;23;19971;-76
2024/02/28 11:37:39;;;;;;;;;;;;;;;6.25;100.00;101775.84;6187871;23;19958;-75
2024/02/28 11:40:12;;;;;;;;;;;;;;;6.31;99.48;101761.03;6159862;23;19912;-75
2024/02/28 11:42:40;;;;;;;;;;;;;;;6.22;99.88;101770.78;6185782;23;19958;-76
2024/02/28 11:45:18;;;;;;;;;;;;;;;6.24;100.00;101775.97;6185008;23;20596;-76
2024/02/28 11:47:47;;;;;;;;;;;;;;;6.25;100.00;101769.63;6184420;23;20208;-76
2024/02/28 11:50:12;;;;;;;;;;;;;;;6.25;99.87;101757.13;6158588;23;19920;-76
2024/02/28 11:52:41;;;;;;;;;;;;;;;6.14;100.00;101759.94;6185145;23;20352;-76
2024/02/28 11:55:12;;;;;;;;;;;;;;;6.01;100.00;101763.78;6184671;23;19935;-76
2024/02/28 11:57:37;;;;;;;;;;;;;;;5.83;100.00;101768.16;6184288;23;20297;-75
2024/02/28 12:00:04;;;;;;;;;;;;;;;5.69;100.00;101766.75;6177204;23;19920;-75
2024/02/28 12:02:30;;;;;;;;;;;;;;;5.76;100.00;101768.72;6184959;23;19916;-76
2024/02/28 12:04:55;;;;;;;;;;;;;;;5.79;100.00;101764.06;6184759;23;19918;-76
2024/02/28 12:07:20;;;;;;;;;;;;;;;5.70;100.00;101755.09;6156809;23;20497;-77
2024/02/28 12:09:48;;;;;;;;;;;;;;;5.64;100.00;101755.69;6185271;23;20309;-77
2024/02/28 12:12:15;;;;;;;;;;;;;;;5.68;100.00;101751.72;6184317;23;20261;-77
2024/02/28 12:14:42;;;;;;;;;;;;;;;5.70;100.00;101739.06;6184941;23;19919;-77
2024/02/28 12:17:09;;;;;;;;;;;;;;;5.68;100.00;101738.34;6184748;23;20333;-77
2024/02/28 12:19:34;;;;;;;;;;;;;;;5.74;100.00;101735.13;6184277;23;20252;-77
2024/02/28 12:22:00;;;;;;;;;;;;;;;5.79;100.00;101740.88;6184120;23;19951;-77
2024/02/28 12:24:25;;;;;;;;;;;;;;;5.86;100.00;101741.97;6185540;23;19913;-77
2024/02/28 12:26:50;;;;;;;;;;;;;;;5.77;100.00;101740.19;6183949;23;19912;-77
2024/02/28 12:29:19;;;;;;;;;;;;;;;5.68;100.00;101730.34;6182652;23;20392;-76
2024/02/28 12:31:45;;;;;;;;;;;;;;;5.78;100.00;101731.19;6185540;23;19917;-75